Shenandoah Caverns, Virginia
Current Conditions -  °F | °C
As of 6:55 AM on Monday 24 Nov 2014 (Local Time) from K8W2 Reporting Station
Clear Clear  
Wind Chill: 52°   Ceiling: Unl
Heat Index: 52°   Visibility: 10mi
Dew Point: 50°   Wind: 7mph
Humidity: 95%   Direction: 220°SW
Pressure: 29.63"   Gusts: NA
Location:  38.7189°N, 78.7118°W
Report Text: K8W2 241155Z AUTO 22006KT 10SM CLR 11/10 A2963 RMK AO1 70035 T01090102 10132 20097
Loading
Personal Weather Stations






























Interactive Weather Map New forecast layout! Learn more

10-Day Weather Forecast

Advertisements
Track Severe Weather on mobile